Pagina principale
METAR-TAF:

METAR-TAF

Aeroporti :

Aeroporto di Magadino

Locarno, Svizzera

latitudine: 46-09-55N, longitudine: 8-52-40E, altezza: 198 m

Osservazione

Il bollettino è stato emesso 17 minuti fa, alle 18:20 UTC
Vento calmo
Temperature 13°C
Umidità 100%
Pressione 1005 hPa
Visibilità 10 km o più
Poco nuvoloso ad un'altezza di 4400 ft
Nuvoloso ad un'altezza di 5800 ft
rovesci di pioggia

METAR: LSZL 191820Z AUTO 00000KT 9999NDV -SHRA FEW044 BKN058 13/13 Q1005 RMK

Ora: 20:37 (18:37 UTC)


TAF: mancante

Osservazioni e previsioni meteorologiche di più di 4000 aeroporti (messaggi METAR e TAF).

Le stazioni disponibili sono rappresentate dai dischi gialli e rossi sulla carta.

Puntare il mouse per vedere il nome della stazione.

Clicca sopra per visualizzare le osservazioni e previsioni meteorologiche.

Per cambiare la mappa : fare clic sui pulsanti verdi con una croce nera per ingrandire, il pulsante verde con un trattino per diminuire, o sulla freccia verde per le mappe adiacenti.


METAR-TAF: